map of ELM home
ELM - Airport
Location
City:  Elmira/Corning, New York, United States
Name:Elmira/Corning Regional
ICAO:KELM
IATA:ELM
FAA LID:ELM

Details
Type:Airport (Part 139 Class I)
Use:Public/Civil
Latitude:4209'35"N (42.159856)
Longitude:7653'30"W (-76.891745)
Datum:WGS 1984
Elevation:954 ft (291 m)
Variation:11.55W (WMM2015v2 magnetic declination)
0.04 annual change
Runways:3
Longest:8001 × 150 ft (2439 × 45.5 m), paved

Time
Time Zone:UTC-5 (DST-4)
Local Time:

Weather
METAR:KELM 041353Z 00000KT 10SM CLR 03/01 A3004 RMK AO2 SLP180 T00280006
TAF:KELM 041132Z 0412/0512 VRB04KT P6SM BKN060
FM041800 VRB04KT P6SM SCT080
FM050300 21007KT P6SM OVC050
FM050800 22006KT P6SM OVC030

Related Locations
Nearby:
Farthest:YAUG: 11590 mi / 18652 km
Augusta [Augusta Airport], WA, AU

Find:

   beyond  
but within

Other Information
Maps:
Delays:
NOTAMs:
Links:
Sources:

  
  • flag of United States
  • flag of New York
  

Airport Diagram

Airport diagram for ELM

Airport diagram PDF from FAA

Sectional Chart

Flight Planning
at skyvector.com

Satellite Image

Google Maps Satellite view

 

Copyright © 2004-2019 Karl L. Swartz. All rights reserved.
The Great Circle Mapper name and logo are trademarks of the Great Circle Mapper.
All other trademarks mentioned herein belong to their respective owners.
Please see credits for attibutions and further copyright information.

  Follow gcmap on Facebook Follow gcmap on Twitter GCmap on LinkedIn

hCard Microformat

Geo Microformat